Time;durP1;ratioP1;P1;durP2;ratioP2;P2;SDS_P1;SDS_P2;PMS_P1;PMS_P2;Temp;Humidity;BMP_temperature;BMP_pressure;BME280_temperature;BME280_humidity;BME280_pressure;Samples;Min_cycle;Max_cycle;Signal;HPM_P1;HPM_P2
2023/11/30 00:00:10;;;;;;;10.23;6.70;;;3.70;99.90;;;;;;5050329;28;20355;-92
2023/11/30 00:02:35;;;;;;;13.27;6.40;;;3.60;99.90;;;;;;5035939;28;20030;-92
2023/11/30 00:05:02;;;;;;;11.55;6.88;;;3.60;99.90;;;;;;5039942;28;20025;-91
2023/11/30 00:07:28;;;;;;;10.43;6.15;;;3.70;99.90;;;;;;5035048;28;20025;-92
2023/11/30 00:09:53;;;;;;;6.93;6.22;;;3.70;99.90;;;;;;5039213;28;20124;-93
2023/11/30 00:12:19;;;;;;;8.52;6.03;;;3.60;99.90;;;;;;5052019;28;20055;-92
2023/11/30 00:14:44;;;;;;;8.13;6.00;;;3.70;99.90;;;;;;5037695;28;20044;-91
2023/11/30 00:17:10;;;;;;;13.35;7.35;;;3.70;99.90;;;;;;5054997;28;20025;-91
2023/11/30 00:19:35;;;;;;;10.70;6.45;;;3.70;99.90;;;;;;5050658;28;20029;-92
2023/11/30 00:22:02;;;;;;;7.47;6.60;;;3.70;99.90;;;;;;5055534;28;20021;-92
2023/11/30 00:24:27;;;;;;;9.00;6.63;;;3.70;99.90;;;;;;5041127;28;20539;-91
2023/11/30 00:26:53;;;;;;;13.02;6.70;;;3.70;99.90;;;;;;5037027;28;20025;-93
2023/11/30 00:29:18;;;;;;;12.25;6.03;;;3.60;99.90;;;;;;5053330;28;20044;-92
2023/11/30 00:31:44;;;;;;;10.77;6.13;;;3.60;99.90;;;;;;5054691;28;20060;-93
2023/11/30 00:34:09;;;;;;;8.40;6.20;;;3.70;99.90;;;;;;5053084;28;20048;-93
2023/11/30 00:36:35;;;;;;;8.05;6.38;;;3.60;99.90;;;;;;5048180;28;20093;-93
2023/11/30 00:39:00;;;;;;;7.32;6.53;;;3.70;99.90;;;;;;5049980;28;20431;-92
2023/11/30 00:41:26;;;;;;;10.57;7.13;;;3.70;99.90;;;;;;5054292;28;20021;-92
2023/11/30 00:43:51;;;;;;;9.52;6.97;;;3.70;99.90;;;;;;5053666;28;20324;-92
2023/11/30 00:46:17;;;;;;;14.45;7.20;;;3.70;99.90;;;;;;5054813;28;20032;-92
2023/11/30 00:48:43;;;;;;;12.15;8.00;;;3.70;99.90;;;;;;5040322;28;20052;-91
2023/11/30 00:51:09;;;;;;;12.02;6.78;;;3.70;99.90;;;;;;5035094;28;20468;-92
2023/11/30 00:53:35;;;;;;;9.00;6.82;;;3.70;99.90;;;;;;5044558;28;20071;-92
2023/11/30 00:56:01;;;;;;;11.43;7.95;;;3.70;99.90;;;;;;5054027;28;20072;-92
2023/11/30 00:58:26;;;;;;;12.63;7.30;;;3.70;99.90;;;;;;5052595;28;20035;-91
2023/11/30 01:00:52;;;;;;;8.65;7.30;;;3.70;99.90;;;;;;5054669;28;20032;-92
2023/11/30 01:03:17;;;;;;;9.50;6.53;;;3.60;99.90;;;;;;5056973;28;20033;-92
2023/11/30 01:05:43;;;;;;;14.52;7.35;;;3.50;99.90;;;;;;5049917;28;20031;-92
2023/11/30 01:08:08;;;;;;;8.05;7.05;;;3.50;99.90;;;;;;5054238;28;20117;-91
2023/11/30 01:10:34;;;;;;;7.43;6.55;;;3.40;99.90;;;;;;5052366;28;20025;-92
2023/11/30 01:12:59;;;;;;;9.23;6.63;;;3.40;99.90;;;;;;5062109;28;20031;-91
2023/11/30 01:15:25;;;;;;;9.98;6.70;;;3.40;99.90;;;;;;5054014;28;20029;-92
2023/11/30 01:17:50;;;;;;;6.97;6.25;;;3.40;99.90;;;;;;5070323;28;20021;-92
2023/11/30 01:20:17;;;;;;;7.28;6.13;;;3.30;99.90;;;;;;5065874;28;20052;-92
2023/11/30 01:22:42;;;;;;;8.40;6.80;;;3.30;99.90;;;;;;5054838;28;20025;-92
2023/11/30 01:25:08;;;;;;;8.73;6.53;;;3.20;99.90;;;;;;5035467;28;20080;-92
2023/11/30 01:27:33;;;;;;;7.57;6.50;;;3.20;99.90;;;;;;5041386;28;20029;-90
2023/11/30 01:29:59;;;;;;;9.73;6.70;;;3.20;99.90;;;;;;5053209;28;20127;-91
2023/11/30 01:32:24;;;;;;;10.90;6.47;;;3.30;99.90;;;;;;5049742;28;20493;-91
2023/11/30 01:34:50;;;;;;;10.63;6.85;;;3.10;99.90;;;;;;5033476;28;20444;-92
2023/11/30 01:37:15;;;;;;;7.15;6.00;;;3.10;99.90;;;;;;5033868;28;20359;-91
2023/11/30 01:39:41;;;;;;;9.75;6.40;;;3.10;99.90;;;;;;5036423;28;20514;-92
2023/11/30 01:42:06;;;;;;;9.55;6.60;;;3.10;99.90;;;;;;5047209;28;20426;-91
2023/11/30 01:44:32;;;;;;;10.38;6.20;;;3.10;99.90;;;;;;5052452;28;20029;-91
2023/11/30 01:46:59;;;;;;;8.70;6.18;;;3.00;99.90;;;;;;5053923;28;20029;-93
2023/11/30 01:49:24;;;;;;;7.93;5.57;;;3.00;99.90;;;;;;5061348;28;20031;-92
2023/11/30 01:51:50;;;;;;;11.80;6.20;;;2.90;99.90;;;;;;5062504;28;20044;-91
2023/11/30 01:54:16;;;;;;;8.18;5.93;;;2.80;99.90;;;;;;5049443;28;20060;-91
2023/11/30 01:56:42;;;;;;;10.85;6.30;;;2.80;99.90;;;;;;5041936;28;20032;-92
2023/11/30 01:59:10;;;;;;;6.97;5.97;;;2.90;99.90;;;;;;5042971;28;20037;-90
2023/11/30 02:01:36;;;;;;;10.60;6.93;;;2.80;99.90;;;;;;5068282;28;20033;-90
2023/11/30 02:04:21;;;;;;;9.90;7.65;;;2.70;99.90;;;;;;5038708;28;20029;-92
2023/11/30 02:06:48;;;;;;;10.45;7.38;;;2.70;99.90;;;;;;5044603;28;20026;-91
2023/11/30 02:09:14;;;;;;;13.00;7.00;;;2.70;99.90;;;;;;5046966;28;20025;-92
2023/11/30 02:11:40;;;;;;;9.82;6.88;;;2.70;99.90;;;;;;5067691;28;20021;-88
2023/11/30 02:14:06;;;;;;;9.63;7.07;;;2.70;99.90;;;;;;5055987;28;20436;-91
2023/11/30 02:16:32;;;;;;;13.10;7.50;;;2.70;99.90;;;;;;5057200;28;20029;-91
2023/11/30 02:18:58;;;;;;;9.88;7.10;;;2.80;99.90;;;;;;5057085;28;20358;-93
2023/11/30 02:21:24;;;;;;;14.45;7.85;;;2.70;99.90;;;;;;5056574;28;20021;-92
2023/11/30 02:23:50;;;;;;;13.00;7.75;;;2.70;99.90;;;;;;5056445;28;20108;-92
2023/11/30 02:26:16;;;;;;;12.75;7.70;;;2.70;99.90;;;;;;5055869;28;20025;-92
2023/11/30 02:28:43;;;;;;;14.32;7.72;;;2.70;99.90;;;;;;5056972;28;20083;-91
2023/11/30 02:31:08;;;;;;;11.25;7.15;;;2.70;99.90;;;;;;5037059;28;20107;-91
2023/11/30 02:33:34;;;;;;;13.93;8.82;;;2.70;99.90;;;;;;5036949;28;20037;-92
2023/11/30 02:36:00;;;;;;;11.85;7.68;;;2.60;99.90;;;;;;5052407;28;20025;-93
2023/11/30 02:38:25;;;;;;;12.80;8.23;;;2.60;99.90;;;;;;5049106;28;20022;-92
2023/11/30 02:40:51;;;;;;;9.38;6.97;;;2.70;99.90;;;;;;5052293;28;20112;-92
2023/11/30 02:43:16;;;;;;;15.43;8.63;;;2.70;99.90;;;;;;5057802;28;20028;-91
2023/11/30 02:45:42;;;;;;;13.00;8.27;;;2.70;99.90;;;;;;5056836;28;20106;-93
2023/11/30 02:48:07;;;;;;;11.13;8.00;;;2.70;99.90;;;;;;5055479;28;20036;-92
2023/11/30 02:50:33;;;;;;;13.05;8.90;;;2.70;99.90;;;;;;5054504;28;20025;-92
2023/11/30 02:52:59;;;;;;;10.85;8.25;;;2.70;99.90;;;;;;5038186;28;20385;-93
2023/11/30 02:55:25;;;;;;;12.93;8.88;;;2.80;99.90;;;;;;5055940;28;20052;-91
2023/11/30 02:57:50;;;;;;;12.98;8.75;;;2.80;99.90;;;;;;5055720;28;20020;-93
2023/11/30 03:00:16;;;;;;;14.43;8.68;;;2.80;99.90;;;;;;5046838;28;20025;-93
2023/11/30 03:02:42;;;;;;;12.95;8.80;;;2.80;99.90;;;;;;5055937;28;20029;-93
2023/11/30 03:05:07;;;;;;;12.75;9.45;;;2.90;99.90;;;;;;5054914;28;20025;-93
2023/11/30 03:07:33;;;;;;;15.63;9.20;;;2.80;99.90;;;;;;5041322;28;20108;-94
2023/11/30 03:09:58;;;;;;;13.10;8.80;;;2.90;99.90;;;;;;5048770;28;20059;-92
2023/11/30 03:12:24;;;;;;;13.15;9.32;;;2.90;99.90;;;;;;5058507;28;20117;-93
2023/11/30 03:14:49;;;;;;;12.77;8.32;;;2.80;99.90;;;;;;5058047;28;20499;-94
2023/11/30 03:17:15;;;;;;;13.63;8.85;;;2.90;99.90;;;;;;5057927;28;20048;-94
2023/11/30 03:19:41;;;;;;;10.52;8.57;;;2.80;99.90;;;;;;5054548;28;20040;-95
2023/11/30 03:22:07;;;;;;;13.82;8.45;;;2.80;99.90;;;;;;5056958;28;20107;-94
2023/11/30 03:24:32;;;;;;;13.98;9.05;;;2.80;99.90;;;;;;5053796;28;20052;-92
2023/11/30 03:26:58;;;;;;;12.63;8.32;;;2.80;99.90;;;;;;5056106;28;20025;-94
2023/11/30 03:29:23;;;;;;;14.60;9.15;;;2.80;99.90;;;;;;5047311;28;20037;-92
2023/11/30 03:31:49;;;;;;;19.42;10.43;;;2.80;99.90;;;;;;5035977;28;20041;-93
2023/11/30 03:34:14;;;;;;;15.52;10.63;;;2.90;99.90;;;;;;5051412;28;20036;-93
2023/11/30 03:36:40;;;;;;;20.02;11.40;;;2.90;99.90;;;;;;5048252;28;20091;-93
2023/11/30 03:39:06;;;;;;;15.90;9.75;;;2.80;99.90;;;;;;5043623;28;20052;-91
2023/11/30 03:41:32;;;;;;;17.30;10.75;;;2.90;99.90;;;;;;5056989;28;20029;-93
2023/11/30 03:43:57;;;;;;;31.55;11.40;;;2.90;99.90;;;;;;5049422;28;20036;-93
2023/11/30 03:46:26;;;;;;;18.98;10.48;;;2.80;99.90;;;;;;5042167;28;20017;-92
2023/11/30 03:48:55;;;;;;;16.08;10.48;;;2.80;99.90;;;;;;5042214;28;20036;-93
2023/11/30 03:51:21;;;;;;;15.60;10.63;;;2.80;99.90;;;;;;5056405;28;20108;-94
2023/11/30 03:53:46;;;;;;;15.60;9.82;;;2.80;99.90;;;;;;5048951;28;20120;-94
2023/11/30 03:56:12;;;;;;;13.93;9.63;;;2.70;99.90;;;;;;5056582;28;20025;-93
2023/11/30 03:58:38;;;;;;;12.75;9.00;;;2.70;99.90;;;;;;5051145;28;20033;-91
2023/11/30 04:01:05;;;;;;;11.40;8.68;;;2.70;99.90;;;;;;5035739;28;20026;-94
2023/11/30 04:03:31;;;;;;;14.63;8.52;;;2.70;99.90;;;;;;5042485;28;20025;-93
2023/11/30 04:05:56;;;;;;;12.13;9.32;;;2.60;99.90;;;;;;5035647;28;20422;-93
2023/11/30 04:08:22;;;;;;;11.57;8.80;;;2.60;99.90;;;;;;5053843;28;20477;-92
2023/11/30 04:10:48;;;;;;;14.20;8.10;;;2.60;99.90;;;;;;5052910;28;20066;-92
2023/11/30 04:13:13;;;;;;;24.25;9.27;;;2.50;99.90;;;;;;5053843;28;20136;-92
2023/11/30 04:15:39;;;;;;;26.92;9.13;;;2.60;99.90;;;;;;5050097;28;20180;-92
2023/11/30 04:18:05;;;;;;;15.32;8.57;;;2.50;99.90;;;;;;5035945;28;20030;-93
2023/11/30 04:20:30;;;;;;;26.75;8.82;;;2.50;99.90;;;;;;5045028;28;20032;-93
2023/11/30 04:22:56;;;;;;;15.45;8.40;;;2.50;99.90;;;;;;5051683;28;20033;-92
2023/11/30 04:25:22;;;;;;;18.80;7.47;;;2.50;99.90;;;;;;5046072;28;20040;-93
2023/11/30 04:27:48;;;;;;;26.08;9.00;;;2.40;99.90;;;;;;5055001;28;20025;-91
2023/11/30 04:30:13;;;;;;;22.95;7.95;;;2.30;99.90;;;;;;5052486;28;20043;-91
2023/11/30 04:32:39;;;;;;;24.73;9.23;;;2.30;99.90;;;;;;5052862;28;20354;-90
2023/11/30 04:35:05;;;;;;;22.45;8.10;;;2.30;99.90;;;;;;5040027;28;20032;-91
2023/11/30 04:37:30;;;;;;;20.63;9.18;;;2.30;99.90;;;;;;5053422;28;20025;-91
2023/11/30 04:39:56;;;;;;;42.65;9.52;;;2.20;99.90;;;;;;5049587;28;20163;-94
2023/11/30 04:42:21;;;;;;;15.23;8.20;;;2.20;99.90;;;;;;5054474;28;20032;-93
2023/11/30 04:44:47;;;;;;;36.17;9.15;;;2.10;99.90;;;;;;5054683;28;20021;-94
2023/11/30 04:47:13;;;;;;;18.33;8.80;;;2.10;99.90;;;;;;5053930;28;20036;-93
2023/11/30 04:49:38;;;;;;;22.50;9.15;;;2.00;99.90;;;;;;5054693;28;20380;-93
2023/11/30 04:52:04;;;;;;;18.02;9.75;;;2.00;99.90;;;;;;5054881;28;20033;-90
2023/11/30 04:54:29;;;;;;;21.00;9.65;;;2.40;99.90;;;;;;5037956;28;20044;-93
2023/11/30 04:56:55;;;;;;;24.52;8.73;;;2.00;99.90;;;;;;5043728;28;20041;-90
2023/11/30 04:59:20;;;;;;;15.52;8.57;;;2.00;99.90;;;;;;5069831;28;20056;-91
2023/11/30 05:01:46;;;;;;;18.20;9.52;;;1.90;99.90;;;;;;5072203;28;20036;-91
2023/11/30 05:04:12;;;;;;;14.07;8.57;;;1.90;99.90;;;;;;5059895;28;20040;-91
2023/11/30 05:06:37;;;;;;;10.15;8.48;;;1.90;99.90;;;;;;5051155;28;20026;-92
2023/11/30 05:09:03;;;;;;;15.65;8.85;;;1.90;99.90;;;;;;5044626;28;20038;-91
2023/11/30 05:11:29;;;;;;;11.90;8.30;;;1.90;99.90;;;;;;5049702;28;20041;-91
2023/11/30 05:13:54;;;;;;;17.80;9.48;;;1.90;99.90;;;;;;5053957;28;20115;-91
2023/11/30 05:16:20;;;;;;;26.70;10.02;;;1.90;99.90;;;;;;5054457;28;20108;-91
2023/11/30 05:18:46;;;;;;;10.60;8.63;;;1.90;99.90;;;;;;5044418;28;20029;-91
2023/11/30 05:21:12;;;;;;;12.27;8.98;;;1.90;99.90;;;;;;5039548;28;20516;-90
2023/11/30 05:23:38;;;;;;;18.40;9.35;;;2.00;99.90;;;;;;5057583;28;20084;-92
2023/11/30 05:26:03;;;;;;;11.93;9.07;;;1.90;99.90;;;;;;5037549;28;20049;-92
2023/11/30 05:28:31;;;;;;;14.38;10.13;;;1.90;99.90;;;;;;5050899;28;20109;-91
2023/11/30 05:30:56;;;;;;;11.18;9.15;;;1.90;99.90;;;;;;5052076;28;20041;-94
2023/11/30 05:33:24;;;;;;;11.02;9.23;;;1.90;99.90;;;;;;5055578;28;20035;-93
2023/11/30 05:35:50;;;;;;;12.40;9.30;;;2.00;99.90;;;;;;5055500;28;20036;-91
2023/11/30 05:38:15;;;;;;;11.13;9.18;;;2.00;99.90;;;;;;5054329;28;20025;-92
2023/11/30 05:40:41;;;;;;;12.50;9.32;;;2.00;99.90;;;;;;5054704;28;20021;-91
2023/11/30 05:43:07;;;;;;;12.05;8.85;;;2.00;99.90;;;;;;5052940;28;20386;-93
2023/11/30 05:45:32;;;;;;;12.30;8.93;;;2.00;99.90;;;;;;5050414;28;20430;-92
2023/11/30 05:47:58;;;;;;;9.90;8.75;;;2.00;99.90;;;;;;5049934;28;20107;-90
2023/11/30 05:50:24;;;;;;;13.18;9.35;;;2.10;99.90;;;;;;5058595;28;20021;-91
2023/11/30 05:52:50;;;;;;;12.68;9.00;;;2.00;99.90;;;;;;5047357;28;20037;-93
2023/11/30 05:55:15;;;;;;;13.05;9.60;;;2.10;99.90;;;;;;5038755;28;20026;-91
2023/11/30 05:57:41;;;;;;;10.38;8.57;;;2.10;99.90;;;;;;5050574;28;20029;-91
2023/11/30 06:00:10;;;;;;;10.75;9.02;;;2.10;99.90;;;;;;5048899;28;20022;-91
2023/11/30 06:02:36;;;;;;;14.75;8.75;;;2.10;99.90;;;;;;5056992;28;20025;-90
2023/11/30 06:05:02;;;;;;;13.57;10.52;;;2.20;99.90;;;;;;5061059;28;20029;-89
2023/11/30 06:07:27;;;;;;;9.85;8.43;;;2.20;99.90;;;;;;5075049;28;20037;-91
2023/11/30 06:09:53;;;;;;;11.18;9.05;;;2.20;99.90;;;;;;5074507;28;20470;-92
2023/11/30 06:12:19;;;;;;;11.98;10.00;;;2.20;99.90;;;;;;5061809;28;20027;-92
2023/11/30 06:14:44;;;;;;;12.88;9.55;;;2.30;99.90;;;;;;5068287;28;20032;-95
2023/11/30 06:17:11;;;;;;;11.77;9.55;;;2.30;99.90;;;;;;5061862;28;20025;-93
2023/11/30 06:19:36;;;;;;;11.02;9.63;;;2.30;99.90;;;;;;5057094;28;20028;-93
2023/11/30 06:22:02;;;;;;;10.10;9.00;;;2.30;99.90;;;;;;5058878;28;20032;-93
2023/11/30 06:24:29;;;;;;;10.73;9.10;;;2.30;99.90;;;;;;5056707;28;20385;-93
2023/11/30 06:26:55;;;;;;;13.23;10.32;;;2.30;99.90;;;;;;5058263;28;20044;-93
2023/11/30 06:29:21;;;;;;;14.25;10.57;;;2.30;99.90;;;;;;5058657;28;20377;-92
2023/11/30 06:31:47;;;;;;;12.52;10.13;;;2.20;99.90;;;;;;5059936;28;20025;-93
2023/11/30 06:34:12;;;;;;;12.23;10.18;;;2.30;99.90;;;;;;5060710;28;20055;-93
2023/11/30 06:36:38;;;;;;;16.02;10.48;;;2.20;99.90;;;;;;5065033;28;20059;-93
2023/11/30 06:39:04;;;;;;;12.82;9.25;;;2.30;99.90;;;;;;5053394;28;20059;-93
2023/11/30 06:41:30;;;;;;;12.98;10.15;;;2.30;99.90;;;;;;5050370;28;20026;-92
2023/11/30 06:43:56;;;;;;;14.55;10.77;;;2.30;99.90;;;;;;5056479;28;20163;-92
2023/11/30 06:46:22;;;;;;;17.15;11.38;;;2.20;99.90;;;;;;5069229;28;20105;-93
2023/11/30 06:48:50;;;;;;;13.50;10.88;;;2.30;99.90;;;;;;5050399;28;20432;-92
2023/11/30 06:51:16;;;;;;;14.10;10.25;;;2.40;99.90;;;;;;5061907;28;20025;-92
2023/11/30 06:53:42;;;;;;;13.73;10.02;;;2.40;99.90;;;;;;5067422;28;20068;-93
2023/11/30 06:56:11;;;;;;;11.00;8.65;;;2.40;99.90;;;;;;5062762;28;20028;-94
2023/11/30 06:58:37;;;;;;;13.43;9.77;;;2.40;99.90;;;;;;5064931;28;20033;-94
2023/11/30 07:01:09;;;;;;;9.82;8.68;;;2.50;99.90;;;;;;5049504;28;20021;-93
2023/11/30 07:03:39;;;;;;;12.77;10.07;;;2.50;99.90;;;;;;5056490;28;20032;-93
2023/11/30 07:06:05;;;;;;;14.15;11.35;;;2.50;99.90;;;;;;5048776;28;20017;-93
2023/11/30 07:08:34;;;;;;;12.38;10.20;;;2.50;99.90;;;;;;5057710;28;20390;-93
2023/11/30 07:11:48;;;;;;;11.48;9.23;;;2.50;99.90;;;;;;5039861;28;20088;-94
2023/11/30 07:14:45;;;;;;;14.02;10.25;;;2.50;99.90;;;;;;5018730;28;20041;-94
2023/11/30 07:17:23;;;;;;;14.75;9.82;;;3.30;99.90;;;;;;5056227;28;20029;-92
2023/11/30 07:20:12;;;;;;;11.02;9.48;;;2.50;99.90;;;;;;5031376;28;20069;-92
2023/11/30 07:22:40;;;;;;;11.27;9.80;;;2.60;99.90;;;;;;5043548;28;20040;-95
2023/11/30 07:25:10;;;;;;;13.75;10.80;;;2.60;99.90;;;;;;5068620;28;20055;-92
2023/11/30 07:27:54;;;;;;;12.57;9.77;;;2.60;99.90;;;;;;5074497;28;19997;-95
2023/11/30 07:30:51;;;;;;;15.25;10.93;;;2.50;99.90;;;;;;5059210;28;20050;-95
2023/11/30 07:33:42;;;;;;;12.98;10.27;;;2.60;99.90;;;;;;5056134;28;20104;-95
2023/11/30 07:36:10;;;;;;;16.25;11.27;;;2.60;99.90;;;;;;5047224;28;20117;-94
2023/11/30 07:38:36;;;;;;;12.60;11.23;;;2.60;99.90;;;;;;5044957;28;20025;-94
2023/11/30 07:41:02;;;;;;;16.75;11.85;;;2.60;99.90;;;;;;5048189;28;20064;-93
2023/11/30 07:43:31;;;;;;;14.82;10.70;;;2.60;99.90;;;;;;5029882;28;20018;-93
2023/11/30 07:45:58;;;;;;;13.82;10.52;;;2.70;99.90;;;;;;5027550;28;20029;-94
2023/11/30 07:48:24;;;;;;;15.40;11.07;;;2.70;99.90;;;;;;5047542;28;20045;-95
2023/11/30 07:50:51;;;;;;;17.15;10.88;;;2.70;99.90;;;;;;5040385;28;20029;-94
2023/11/30 07:53:17;;;;;;;15.35;10.90;;;2.60;99.90;;;;;;5037184;28;20448;-94
2023/11/30 07:55:43;;;;;;;13.63;10.43;;;2.60;99.90;;;;;;5035716;28;20038;-95
2023/11/30 07:58:09;;;;;;;14.15;11.25;;;2.70;99.90;;;;;;5040476;28;20060;-91
2023/11/30 08:00:34;;;;;;;14.88;10.68;;;2.70;99.90;;;;;;5035476;28;20426;-92
2023/11/30 08:03:01;;;;;;;14.00;10.82;;;2.70;99.90;;;;;;5032239;28;20077;-91
2023/11/30 08:05:27;;;;;;;17.15;11.27;;;2.70;99.90;;;;;;5034702;28;20028;-90
2023/11/30 08:07:53;;;;;;;17.02;12.35;;;2.80;99.90;;;;;;5030958;28;20026;-93
2023/11/30 08:10:18;;;;;;;15.75;12.05;;;2.80;99.90;;;;;;5046608;28;20033;-92
2023/11/30 08:12:45;;;;;;;13.50;10.45;;;2.80;99.90;;;;;;5058298;28;20017;-94
2023/11/30 08:15:11;;;;;;;18.13;11.32;;;2.80;99.90;;;;;;5058659;28;20025;-92
2023/11/30 08:17:37;;;;;;;16.58;11.02;;;2.90;99.90;;;;;;5054757;28;20037;-89
2023/11/30 08:20:04;;;;;;;16.00;11.07;;;2.80;99.90;;;;;;5031368;28;20033;-90
2023/11/30 08:22:30;;;;;;;15.88;11.95;;;2.80;99.90;;;;;;5038558;28;20049;-90
2023/11/30 08:24:56;;;;;;;21.10;12.90;;;2.80;99.90;;;;;;5026226;28;20032;-92
2023/11/30 08:27:23;;;;;;;27.05;13.32;;;2.80;99.90;;;;;;5041119;28;20103;-95
2023/11/30 08:29:49;;;;;;;18.42;12.18;;;2.70;99.90;;;;;;5050175;28;20025;-94
2023/11/30 08:32:15;;;;;;;24.67;14.07;;;2.70;99.90;;;;;;5329621;22;20049;-92
2023/11/30 08:34:41;;;;;;;23.00;13.55;;;3.20;99.90;;;;;;5036466;28;20132;-92
2023/11/30 08:37:07;;;;;;;28.77;16.02;;;2.80;99.90;;;;;;5031790;28;20050;-92
2023/11/30 08:39:33;;;;;;;29.27;15.80;;;2.70;99.90;;;;;;5029336;28;20034;-87
2023/11/30 08:41:59;;;;;;;30.42;16.15;;;2.80;99.90;;;;;;5029802;28;20052;-93
2023/11/30 08:44:24;;;;;;;30.92;15.38;;;2.80;99.90;;;;;;5017466;28;20026;-90
2023/11/30 08:46:50;;;;;;;31.42;16.58;;;2.80;99.90;;;;;;5015481;28;20057;-90
2023/11/30 08:49:15;;;;;;;28.80;15.93;;;2.80;99.90;;;;;;5300382;22;20049;-92
2023/11/30 08:51:43;;;;;;;36.85;17.63;;;2.80;99.90;;;;;;5378849;22;20053;-93
2023/11/30 08:54:08;;;;;;;31.50;17.17;;;2.70;99.90;;;;;;4997476;28;20077;-85
2023/11/30 08:56:34;;;;;;;30.35;15.82;;;3.30;99.90;;;;;;4994539;28;20057;-92
2023/11/30 08:58:59;;;;;;;31.33;16.95;;;2.80;99.90;;;;;;4997697;28;20026;-90
2023/11/30 09:01:25;;;;;;;30.48;16.75;;;2.80;99.90;;;;;;5001298;28;20026;-86
2023/11/30 09:03:59;;;;;;;34.08;17.33;;;2.90;99.90;;;;;;5002175;28;20045;-94
2023/11/30 09:06:25;;;;;;;38.53;18.92;;;3.10;99.90;;;;;;4997770;28;20058;-92
2023/11/30 09:08:51;;;;;;;36.47;18.23;;;2.70;99.90;;;;;;4997764;28;20030;-89
2023/11/30 09:11:17;;;;;;;35.20;17.63;;;2.90;99.90;;;;;;5010227;28;20492;-87
2023/11/30 09:13:42;;;;;;;33.88;18.38;;;2.90;99.90;;;;;;4999384;28;20438;-93
2023/11/30 09:16:10;;;;;;;28.42;16.92;;;3.00;99.90;;;;;;5001264;28;20025;-92
2023/11/30 09:18:35;;;;;;;32.38;18.33;;;3.00;99.90;;;;;;5002493;28;20442;-90
2023/11/30 09:21:01;;;;;;;30.10;17.15;;;3.10;99.90;;;;;;5002092;28;20076;-90
2023/11/30 09:23:29;;;;;;;25.08;15.82;;;3.70;99.90;;;;;;5007735;28;20022;-91
2023/11/30 09:25:55;;;;;;;28.88;15.85;;;3.20;99.90;;;;;;5003238;28;20032;-91
2023/11/30 09:28:21;;;;;;;29.77;16.17;;;3.30;99.90;;;;;;4993871;28;20101;-89
2023/11/30 09:30:46;;;;;;;22.95;14.65;;;3.20;99.90;;;;;;4994541;28;20037;-91
2023/11/30 09:33:13;;;;;;;25.73;15.93;;;3.20;99.90;;;;;;4994300;28;20038;-89
2023/11/30 09:35:39;;;;;;;24.15;14.20;;;3.20;99.90;;;;;;5002492;28;20112;-90
2023/11/30 09:38:05;;;;;;;27.48;14.40;;;3.20;99.90;;;;;;4992038;28;20102;-90
2023/11/30 09:40:30;;;;;;;22.60;14.85;;;3.20;99.90;;;;;;4992422;28;20030;-89
2023/11/30 09:42:56;;;;;;;20.10;14.27;;;3.20;99.90;;;;;;5006676;28;20081;-89
2023/11/30 09:45:23;;;;;;;27.55;16.73;;;3.20;99.90;;;;;;5010484;28;20414;-91
2023/11/30 09:47:49;;;;;;;25.17;15.90;;;3.20;99.90;;;;;;4994147;28;20074;-92
2023/11/30 09:50:15;;;;;;;24.92;16.45;;;3.20;99.90;;;;;;5000764;28;20550;-91
2023/11/30 09:52:42;;;;;;;23.42;16.73;;;3.30;99.90;;;;;;4995548;28;20082;-91
2023/11/30 09:55:10;;;;;;;24.55;16.50;;;3.30;99.90;;;;;;5006711;28;20034;-88
2023/11/30 09:57:36;;;;;;;31.38;18.27;;;3.30;99.90;;;;;;4997670;28;20105;-88
2023/11/30 10:00:04;;;;;;;27.85;17.90;;;3.30;99.90;;;;;;4998707;28;20069;-88
2023/11/30 10:02:30;;;;;;;25.00;16.67;;;3.30;99.90;;;;;;5013123;28;20026;-90
2023/11/30 10:04:56;;;;;;;26.85;17.48;;;3.30;99.90;;;;;;5020691;28;20033;-88
2023/11/30 10:07:22;;;;;;;23.73;16.63;;;3.30;99.90;;;;;;5013307;28;20115;-89
2023/11/30 10:09:48;;;;;;;28.13;17.60;;;3.30;99.90;;;;;;5017373;28;20026;-93
2023/11/30 10:12:14;;;;;;;26.95;17.05;;;3.30;99.90;;;;;;4997358;28;20023;-89
2023/11/30 10:14:40;;;;;;;27.25;17.40;;;3.40;99.90;;;;;;4998168;28;20042;-90
2023/11/30 10:17:07;;;;;;;25.15;15.95;;;3.40;99.90;;;;;;5006907;28;20018;-90
2023/11/30 10:19:33;;;;;;;29.80;17.48;;;3.40;99.90;;;;;;5016451;28;20049;-94
2023/11/30 10:22:00;;;;;;;29.40;17.80;;;3.70;99.90;;;;;;5021827;28;20022;-94
2023/11/30 10:24:27;;;;;;;29.52;16.80;;;3.40;99.90;;;;;;5019932;28;20033;-91
2023/11/30 10:26:56;;;;;;;26.80;18.45;;;3.40;99.90;;;;;;5014051;28;20168;-91
2023/11/30 10:29:27;;;;;;;28.00;17.95;;;3.40;99.90;;;;;;5006827;28;20049;-92
2023/11/30 10:31:54;;;;;;;27.23;18.33;;;3.40;99.90;;;;;;5009375;28;20026;-91
2023/11/30 10:34:36;;;;;;;27.38;18.33;;;3.50;99.90;;;;;;5005557;28;20042;-91
2023/11/30 10:37:02;;;;;;;33.15;18.70;;;3.50;99.90;;;;;;5003586;28;20032;-87
2023/11/30 10:39:35;;;;;;;30.35;18.02;;;3.40;99.90;;;;;;5017623;28;20072;-93
2023/11/30 10:42:11;;;;;;;31.38;18.80;;;3.40;99.90;;;;;;5019967;28;20022;-93
2023/11/30 10:44:38;;;;;;;38.55;18.73;;;3.40;99.90;;;;;;5016776;28;20025;-84
2023/11/30 10:47:07;;;;;;;30.73;18.98;;;3.40;99.90;;;;;;5018605;28;20470;-91
2023/11/30 10:49:33;;;;;;;30.70;18.65;;;3.30;99.90;;;;;;5018627;28;20088;-94
2023/11/30 10:52:00;;;;;;;31.67;18.58;;;3.40;99.90;;;;;;5017077;28;20065;-88
2023/11/30 10:54:34;;;;;;;36.53;18.60;;;3.30;99.90;;;;;;5015834;28;20474;-89
2023/11/30 10:57:01;;;;;;;42.83;20.23;;;3.20;99.90;;;;;;5018005;28;20041;-86
2023/11/30 10:59:30;;;;;;;30.00;17.77;;;3.20;99.90;;;;;;5015352;28;20109;-84
2023/11/30 11:01:58;;;;;;;32.72;18.60;;;3.20;99.90;;;;;;5015378;28;20029;-87
2023/11/30 11:04:27;;;;;;;26.50;18.83;;;3.20;99.90;;;;;;5016533;28;20370;-87
2023/11/30 11:07:05;;;;;;;28.73;18.27;;;3.20;99.90;;;;;;5008664;28;20041;-86
2023/11/30 11:09:40;;;;;;;31.23;19.00;;;3.20;99.90;;;;;;4997765;28;20030;-88
2023/11/30 11:12:05;;;;;;;39.03;19.38;;;3.20;99.90;;;;;;5003280;28;20124;-84
2023/11/30 11:14:34;;;;;;;59.40;19.80;;;3.20;99.90;;;;;;5017491;28;20466;-89
2023/11/30 11:17:19;;;;;;;30.52;18.85;;;3.20;99.90;;;;;;5020315;28;20062;-92
2023/11/30 11:19:45;;;;;;;32.45;18.67;;;3.20;99.90;;;;;;5012817;28;20015;-93
2023/11/30 11:22:34;;;;;;;38.08;17.90;;;4.00;99.90;;;;;;5019351;28;20042;-88
2023/11/30 11:25:00;;;;;;;28.63;17.70;;;3.10;99.90;;;;;;5020273;28;20027;-93
2023/11/30 11:27:31;;;;;;;35.40;17.75;;;3.20;99.90;;;;;;5020053;28;20073;-93
2023/11/30 11:29:58;;;;;;;30.63;18.20;;;3.60;99.90;;;;;;5026974;28;20026;-94
2023/11/30 11:32:24;;;;;;;36.95;18.80;;;3.10;99.90;;;;;;5016957;28;20034;-93
2023/11/30 11:34:50;;;;;;;31.10;18.77;;;3.00;99.90;;;;;;5013105;28;20068;-95
2023/11/30 11:37:16;;;;;;;48.42;20.10;;;4.10;99.90;;;;;;5014542;28;20017;-91
2023/11/30 11:39:41;;;;;;;33.30;21.23;;;3.00;99.90;;;;;;4996940;28;20030;-93
2023/11/30 11:42:08;;;;;;;32.38;21.52;;;2.90;99.90;;;;;;5002215;28;20427;-93
2023/11/30 11:44:34;;;;;;;52.72;23.15;;;3.00;99.90;;;;;;5020998;28;20057;-91
2023/11/30 11:46:59;;;;;;;38.53;22.35;;;2.90;99.90;;;;;;5019964;28;20034;-89
2023/11/30 11:49:25;;;;;;;42.17;23.50;;;2.90;99.90;;;;;;4999163;28;20026;-89
2023/11/30 11:52:13;;;;;;;47.63;23.98;;;3.00;99.90;;;;;;5000836;28;20047;-94
2023/11/30 11:54:38;;;;;;;46.78;24.95;;;3.00;99.90;;;;;;5008425;28;20043;-90
2023/11/30 11:57:06;;;;;;;43.03;24.98;;;2.90;99.90;;;;;;4997706;28;20422;-93
2023/11/30 11:59:32;;;;;;;45.88;23.88;;;3.00;99.90;;;;;;5001268;28;20022;-90
2023/11/30 12:01:59;;;;;;;49.05;26.00;;;3.70;99.90;;;;;;5017256;28;20099;-93
2023/11/30 12:04:33;;;;;;;46.10;25.35;;;3.10;99.90;;;;;;5018015;28;20068;-90
2023/11/30 12:07:14;;;;;;;51.45;25.60;;;3.10;99.90;;;;;;5005381;28;20038;-93
2023/11/30 12:09:41;;;;;;;48.47;25.73;;;2.60;99.90;;;;;;4999109;28;20372;-88
2023/11/30 12:12:08;;;;;;;48.38;25.80;;;3.10;99.90;;;;;;5007656;28;20084;-89
2023/11/30 12:14:34;;;;;;;47.13;25.33;;;3.70;99.90;;;;;;5006526;28;20073;-90
2023/11/30 12:17:01;;;;;;;58.00;25.38;;;3.20;99.90;;;;;;4996924;28;20125;-92
2023/11/30 12:19:29;;;;;;;46.88;24.80;;;3.20;99.90;;;;;;5004005;28;20470;-90
2023/11/30 12:21:55;;;;;;;49.42;26.95;;;3.20;99.90;;;;;;5001857;28;20074;-90
2023/11/30 12:24:21;;;;;;;46.83;24.88;;;3.20;99.90;;;;;;4996890;28;20029;-92
2023/11/30 12:26:46;;;;;;;46.40;25.65;;;3.10;99.90;;;;;;5003998;28;20022;-89
2023/11/30 12:29:12;;;;;;;45.13;23.55;;;3.20;99.90;;;;;;5013486;28;20036;-85
2023/11/30 12:31:38;;;;;;;47.63;25.88;;;3.20;99.90;;;;;;5001156;28;20025;-84
2023/11/30 12:34:04;;;;;;;48.75;24.60;;;3.20;99.90;;;;;;5010164;28;20498;-83
2023/11/30 12:36:30;;;;;;;44.45;23.85;;;3.20;99.90;;;;;;5000073;28;20046;-84
2023/11/30 12:38:55;;;;;;;45.40;24.45;;;3.20;99.90;;;;;;5012381;28;20436;-81
2023/11/30 12:41:21;;;;;;;48.78;25.20;;;3.20;99.90;;;;;;5005589;28;20030;-85